sensor_id;sensor_type;location;lat;lon;timestamp;pressure;altitude;pressure_sealevel;temperature;humidity
39177;BME280;24904;52.208;21.192;2024-03-02T00:01:48;100278.84;;;8.14;78.22
39177;BME280;24904;52.208;21.192;2024-03-02T00:06:54;100280.16;;;8.12;78.08
39177;BME280;24904;52.208;21.192;2024-03-02T00:12:00;100272.04;;;8.09;78.24
39177;BME280;24904;52.208;21.192;2024-03-02T00:17:05;100278.38;;;8.10;78.25
39177;BME280;24904;52.208;21.192;2024-03-02T00:22:15;100272.90;;;8.00;78.11
39177;BME280;24904;52.208;21.192;2024-03-02T00:27:21;100264.77;;;7.93;78.26
39177;BME280;24904;52.208;21.192;2024-03-02T00:32:28;100267.50;;;7.89;78.27
39177;BME280;24904;52.208;21.192;2024-03-02T00:37:34;100271.47;;;7.84;78.50
39177;BME280;24904;52.208;21.192;2024-03-02T00:42:39;100261.96;;;7.81;78.43
39177;BME280;24904;52.208;21.192;2024-03-02T00:47:44;100266.80;;;7.77;78.74
39177;BME280;24904;52.208;21.192;2024-03-02T00:52:49;100268.41;;;7.75;78.72
39177;BME280;24904;52.208;21.192;2024-03-02T00:57:55;100270.27;;;7.71;78.83
39177;BME280;24904;52.208;21.192;2024-03-02T01:03:00;100271.42;;;7.71;78.85
39177;BME280;24904;52.208;21.192;2024-03-02T01:08:06;100262.05;;;7.71;78.83
39177;BME280;24904;52.208;21.192;2024-03-02T01:13:12;100257.23;;;7.68;78.96
39177;BME280;24904;52.208;21.192;2024-03-02T01:18:17;100250.98;;;7.61;79.17
39177;BME280;24904;52.208;21.192;2024-03-02T01:23:22;100254.05;;;7.58;79.14
39177;BME280;24904;52.208;21.192;2024-03-02T01:28:27;100250.38;;;7.58;79.23
39177;BME280;24904;52.208;21.192;2024-03-02T01:33:32;100249.33;;;7.56;79.32
39177;BME280;24904;52.208;21.192;2024-03-02T01:38:38;100249.38;;;7.54;79.37
39177;BME280;24904;52.208;21.192;2024-03-02T01:43:43;100242.45;;;7.51;79.42
39177;BME280;24904;52.208;21.192;2024-03-02T01:48:48;100240.25;;;7.47;79.25
39177;BME280;24904;52.208;21.192;2024-03-02T01:53:53;100238.09;;;7.45;79.53
39177;BME280;24904;52.208;21.192;2024-03-02T01:59:33;100232.24;;;7.45;79.50
39177;BME280;24904;52.208;21.192;2024-03-02T02:04:36;100238.13;;;7.46;79.71
39177;BME280;24904;52.208;21.192;2024-03-02T02:09:39;100235.16;;;7.43;79.50
39177;BME280;24904;52.208;21.192;2024-03-02T02:14:48;100237.33;;;7.38;79.77
39177;BME280;24904;52.208;21.192;2024-03-02T02:19:52;100230.89;;;7.37;79.79
39177;BME280;24904;52.208;21.192;2024-03-02T02:24:55;100226.69;;;7.33;79.75
39177;BME280;24904;52.208;21.192;2024-03-02T02:29:58;100220.94;;;7.28;79.89
39177;BME280;24904;52.208;21.192;2024-03-02T02:35:04;100218.23;;;7.29;80.12
39177;BME280;24904;52.208;21.192;2024-03-02T02:40:09;100216.23;;;7.26;80.11
39177;BME280;24904;52.208;21.192;2024-03-02T02:45:12;100217.86;;;7.26;80.12
39177;BME280;24904;52.208;21.192;2024-03-02T02:50:16;100213.27;;;7.23;79.99
39177;BME280;24904;52.208;21.192;2024-03-02T02:55:20;100216.70;;;7.16;80.16
39177;BME280;24904;52.208;21.192;2024-03-02T03:00:23;100214.26;;;7.11;80.16
39177;BME280;24904;52.208;21.192;2024-03-02T03:05:26;100211.88;;;7.09;80.31
39177;BME280;24904;52.208;21.192;2024-03-02T03:10:29;100203.08;;;7.06;80.29
39177;BME280;24904;52.208;21.192;2024-03-02T03:15:32;100202.89;;;7.05;80.37
39177;BME280;24904;52.208;21.192;2024-03-02T03:20:35;100200.76;;;7.01;80.41
39177;BME280;24904;52.208;21.192;2024-03-02T03:25:38;100195.24;;;6.98;80.58
39177;BME280;24904;52.208;21.192;2024-03-02T03:30:41;100191.09;;;6.97;80.63
39177;BME280;24904;52.208;21.192;2024-03-02T03:35:45;100193.11;;;6.91;80.64
39177;BME280;24904;52.208;21.192;2024-03-02T03:40:48;100194.67;;;6.83;80.86
39177;BME280;24904;52.208;21.192;2024-03-02T03:45:51;100193.15;;;6.81;81.03
39177;BME280;24904;52.208;21.192;2024-03-02T03:50:54;100196.80;;;6.81;81.09
39177;BME280;24904;52.208;21.192;2024-03-02T03:55:57;100191.80;;;6.80;81.22
39177;BME280;24904;52.208;21.192;2024-03-02T04:01:00;100188.84;;;6.80;81.33
39177;BME280;24904;52.208;21.192;2024-03-02T04:06:04;100184.65;;;6.75;81.26
39177;BME280;24904;52.208;21.192;2024-03-02T04:11:07;100193.02;;;6.73;81.41
39177;BME280;24904;52.208;21.192;2024-03-02T04:16:10;100193.30;;;6.71;81.60
39177;BME280;24904;52.208;21.192;2024-03-02T04:21:14;100199.02;;;6.73;81.61
39177;BME280;24904;52.208;21.192;2024-03-02T04:26:17;100196.66;;;6.72;81.64
39177;BME280;24904;52.208;21.192;2024-03-02T04:31:24;100202.79;;;6.70;81.64
39177;BME280;24904;52.208;21.192;2024-03-02T04:36:27;100196.85;;;6.66;81.87
39177;BME280;24904;52.208;21.192;2024-03-02T04:41:30;100199.13;;;6.71;82.00
39177;BME280;24904;52.208;21.192;2024-03-02T04:46:33;100186.02;;;6.71;81.85
39177;BME280;24904;52.208;21.192;2024-03-02T04:51:36;100190.09;;;6.67;81.86
39177;BME280;24904;52.208;21.192;2024-03-02T04:56:39;100188.48;;;6.69;81.89
39177;BME280;24904;52.208;21.192;2024-03-02T05:01:47;100189.55;;;6.68;82.14
39177;BME280;24904;52.208;21.192;2024-03-02T05:06:52;100184.20;;;6.65;82.07
39177;BME280;24904;52.208;21.192;2024-03-02T05:11:58;100185.04;;;6.65;82.20
39177;BME280;24904;52.208;21.192;2024-03-02T05:17:21;100197.77;;;6.66;82.33
39177;BME280;24904;52.208;21.192;2024-03-02T05:22:24;100203.35;;;6.64;82.38
39177;BME280;24904;52.208;21.192;2024-03-02T05:27:27;100207.23;;;6.67;82.50
39177;BME280;24904;52.208;21.192;2024-03-02T05:32:31;100216.41;;;6.70;82.50
39177;BME280;24904;52.208;21.192;2024-03-02T05:37:34;100218.16;;;6.71;82.56
39177;BME280;24904;52.208;21.192;2024-03-02T05:42:37;100218.42;;;6.72;82.73
39177;BME280;24904;52.208;21.192;2024-03-02T05:47:40;100231.13;;;6.75;82.69
39177;BME280;24904;52.208;21.192;2024-03-02T05:52:43;100231.13;;;6.78;82.54
39177;BME280;24904;52.208;21.192;2024-03-02T05:57:46;100237.00;;;6.79;82.75
39177;BME280;24904;52.208;21.192;2024-03-02T06:03:01;100241.14;;;6.80;82.68
39177;BME280;24904;52.208;21.192;2024-03-02T06:08:05;100246.02;;;6.81;82.80
39177;BME280;24904;52.208;21.192;2024-03-02T06:13:08;100250.84;;;6.84;82.79
39177;BME280;24904;52.208;21.192;2024-03-02T06:18:11;100252.71;;;6.88;82.89
39177;BME280;24904;52.208;21.192;2024-03-02T06:23:14;100251.15;;;6.91;82.84
39177;BME280;24904;52.208;21.192;2024-03-02T06:28:17;100257.28;;;6.96;82.83
39177;BME280;24904;52.208;21.192;2024-03-02T06:33:20;100260.41;;;7.00;82.85
39177;BME280;24904;52.208;21.192;2024-03-02T06:38:23;100261.77;;;7.04;82.79
39177;BME280;24904;52.208;21.192;2024-03-02T06:43:26;100268.34;;;7.08;82.74
39177;BME280;24904;52.208;21.192;2024-03-02T06:48:29;100272.06;;;7.11;82.51
39177;BME280;24904;52.208;21.192;2024-03-02T06:53:32;100270.06;;;7.12;82.73
39177;BME280;24904;52.208;21.192;2024-03-02T06:58:36;100267.98;;;7.18;82.69
39177;BME280;24904;52.208;21.192;2024-03-02T07:03:39;100271.69;;;7.21;82.62
39177;BME280;24904;52.208;21.192;2024-03-02T07:08:42;100273.60;;;7.24;82.53
39177;BME280;24904;52.208;21.192;2024-03-02T07:13:45;100277.87;;;7.27;82.62
39177;BME280;24904;52.208;21.192;2024-03-02T07:18:48;100272.77;;;7.29;82.44
39177;BME280;24904;52.208;21.192;2024-03-02T07:23:54;100276.73;;;7.34;82.49
39177;BME280;24904;52.208;21.192;2024-03-02T07:28:57;100280.20;;;7.39;82.50
39177;BME280;24904;52.208;21.192;2024-03-02T07:34:01;100284.49;;;7.47;82.66
39177;BME280;24904;52.208;21.192;2024-03-02T07:39:04;100282.52;;;7.53;82.20
39177;BME280;24904;52.208;21.192;2024-03-02T07:44:07;100281.93;;;7.54;82.14
39177;BME280;24904;52.208;21.192;2024-03-02T07:49:10;100284.07;;;7.62;82.07
39177;BME280;24904;52.208;21.192;2024-03-02T07:54:13;100281.08;;;7.66;82.19
39177;BME280;24904;52.208;21.192;2024-03-02T07:59:16;100284.02;;;7.73;82.16
39177;BME280;24904;52.208;21.192;2024-03-02T08:04:19;100293.33;;;7.80;81.98
39177;BME280;24904;52.208;21.192;2024-03-02T08:09:22;100297.99;;;7.83;81.73
39177;BME280;24904;52.208;21.192;2024-03-02T08:14:26;100298.23;;;7.90;81.69
39177;BME280;24904;52.208;21.192;2024-03-02T08:19:29;100304.70;;;7.97;81.68
39177;BME280;24904;52.208;21.192;2024-03-02T08:24:32;100296.55;;;8.00;81.39
39177;BME280;24904;52.208;21.192;2024-03-02T08:29:36;100293.11;;;8.04;81.51
39177;BME280;24904;52.208;21.192;2024-03-02T08:34:39;100295.77;;;8.07;81.14
39177;BME280;24904;52.208;21.192;2024-03-02T08:39:42;100300.38;;;8.07;81.02
39177;BME280;24904;52.208;21.192;2024-03-02T08:44:46;100302.72;;;8.16;81.21
39177;BME280;24904;52.208;21.192;2024-03-02T08:49:49;100307.39;;;8.23;81.11
39177;BME280;24904;52.208;21.192;2024-03-02T08:54:52;100312.70;;;8.26;80.98
39177;BME280;24904;52.208;21.192;2024-03-02T08:59:55;100310.86;;;8.29;80.93
39177;BME280;24904;52.208;21.192;2024-03-02T09:04:58;100312.91;;;8.32;80.79
39177;BME280;24904;52.208;21.192;2024-03-02T09:10:01;100318.12;;;8.39;80.82
39177;BME280;24904;52.208;21.192;2024-03-02T09:15:06;100316.38;;;8.42;80.72
39177;BME280;24904;52.208;21.192;2024-03-02T09:20:11;100317.17;;;8.46;80.61
39177;BME280;24904;52.208;21.192;2024-03-02T09:25:16;100316.83;;;8.53;80.71
39177;BME280;24904;52.208;21.192;2024-03-02T09:30:19;100318.20;;;8.56;80.48
39177;BME280;24904;52.208;21.192;2024-03-02T09:35:22;100317.30;;;8.58;80.28
39177;BME280;24904;52.208;21.192;2024-03-02T09:40:25;100317.21;;;8.57;80.38
39177;BME280;24904;52.208;21.192;2024-03-02T09:45:30;100324.23;;;8.59;80.08
39177;BME280;24904;52.208;21.192;2024-03-02T09:50:33;100323.32;;;8.66;80.28
39177;BME280;24904;52.208;21.192;2024-03-02T09:55:37;100320.34;;;8.71;80.17
39177;BME280;24904;52.208;21.192;2024-03-02T10:00:41;100314.92;;;8.77;80.20
39177;BME280;24904;52.208;21.192;2024-03-02T10:05:44;100315.19;;;8.84;80.02
39177;BME280;24904;52.208;21.192;2024-03-02T10:10:47;100301.15;;;8.91;80.04
39177;BME280;24904;52.208;21.192;2024-03-02T10:15:50;100299.76;;;8.98;79.78
39177;BME280;24904;52.208;21.192;2024-03-02T10:20:53;100297.80;;;9.06;79.90
39177;BME280;24904;52.208;21.192;2024-03-02T10:25:56;100289.79;;;9.14;79.47
39177;BME280;24904;52.208;21.192;2024-03-02T10:30:59;100289.67;;;9.23;79.27
39177;BME280;24904;52.208;21.192;2024-03-02T10:44:11;100278.86;;;9.37;79.07
39177;BME280;24904;52.208;21.192;2024-03-02T10:49:16;100278.20;;;9.46;78.95
39177;BME280;24904;52.208;21.192;2024-03-02T10:54:19;100278.50;;;9.56;78.95
39177;BME280;24904;52.208;21.192;2024-03-02T10:59:33;100273.74;;;9.64;78.72
39177;BME280;24904;52.208;21.192;2024-03-02T11:04:36;100275.98;;;9.73;78.93
39177;BME280;24904;52.208;21.192;2024-03-02T11:09:49;100279.17;;;9.84;78.68
39177;BME280;24904;52.208;21.192;2024-03-02T11:14:56;100279.98;;;9.93;78.35
39177;BME280;24904;52.208;21.192;2024-03-02T11:20:01;100277.92;;;10.03;78.26
39177;BME280;24904;52.208;21.192;2024-03-02T11:25:23;100277.11;;;10.09;77.72
39177;BME280;24904;52.208;21.192;2024-03-02T11:30:54;100273.35;;;10.09;77.38
39177;BME280;24904;52.208;21.192;2024-03-02T11:36:17;100263.20;;;10.18;77.51
39177;BME280;24904;52.208;21.192;2024-03-02T11:41:22;100259.69;;;10.25;77.53
39177;BME280;24904;52.208;21.192;2024-03-02T11:46:28;100254.42;;;10.31;77.47
39177;BME280;24904;52.208;21.192;2024-03-02T11:51:36;100247.48;;;10.35;76.76
39177;BME280;24904;52.208;21.192;2024-03-02T11:56:44;100244.29;;;10.38;76.99
39177;BME280;24904;52.208;21.192;2024-03-02T12:01:49;100229.46;;;10.45;76.80
39177;BME280;24904;52.208;21.192;2024-03-02T12:06:58;100221.09;;;10.47;76.25
39177;BME280;24904;52.208;21.192;2024-03-02T12:12:06;100228.94;;;10.47;76.07
39177;BME280;24904;52.208;21.192;2024-03-02T12:17:12;100247.63;;;10.52;76.38
39177;BME280;24904;52.208;21.192;2024-03-02T12:22:17;100249.82;;;10.58;76.41
39177;BME280;24904;52.208;21.192;2024-03-02T12:27:22;100251.91;;;10.64;76.13
39177;BME280;24904;52.208;21.192;2024-03-02T12:32:27;100248.65;;;10.69;75.85
39177;BME280;24904;52.208;21.192;2024-03-02T12:37:32;100250.91;;;10.68;75.62
39177;BME280;24904;52.208;21.192;2024-03-02T12:42:37;100254.13;;;10.74;75.98
39177;BME280;24904;52.208;21.192;2024-03-02T12:47:43;100251.02;;;10.81;75.70
39177;BME280;24904;52.208;21.192;2024-03-02T12:52:53;100249.77;;;10.83;75.40
39177;BME280;24904;52.208;21.192;2024-03-02T12:57:59;100245.77;;;10.81;75.01
39177;BME280;24904;52.208;21.192;2024-03-02T13:03:08;100242.95;;;10.82;75.20
39177;BME280;24904;52.208;21.192;2024-03-02T13:08:13;100249.14;;;10.82;74.93
39177;BME280;24904;52.208;21.192;2024-03-02T13:13:18;100249.75;;;10.79;74.95
39177;BME280;24904;52.208;21.192;2024-03-02T13:18:23;100250.44;;;10.74;74.85
39177;BME280;24904;52.208;21.192;2024-03-02T13:23:28;100247.91;;;10.72;74.87
39177;BME280;24904;52.208;21.192;2024-03-02T13:28:34;100250.93;;;10.69;74.76
39177;BME280;24904;52.208;21.192;2024-03-02T13:33:39;100250.41;;;10.64;74.46
39177;BME280;24904;52.208;21.192;2024-03-02T13:38:44;100257.94;;;10.55;74.55
39177;BME280;24904;52.208;21.192;2024-03-02T13:43:49;100258.98;;;10.50;74.61
39177;BME280;24904;52.208;21.192;2024-03-02T13:48:55;100258.17;;;10.46;74.79
39177;BME280;24904;52.208;21.192;2024-03-02T13:54:02;100257.08;;;10.39;74.52
39177;BME280;24904;52.208;21.192;2024-03-02T13:59:08;100252.95;;;10.33;74.81
39177;BME280;24904;52.208;21.192;2024-03-02T14:04:13;100254.18;;;10.29;74.78
39177;BME280;24904;52.208;21.192;2024-03-02T14:09:18;100256.33;;;10.27;74.99
39177;BME280;24904;52.208;21.192;2024-03-02T14:14:24;100268.20;;;10.23;74.92
39177;BME280;24904;52.208;21.192;2024-03-02T14:19:29;100263.42;;;10.17;74.97
39177;BME280;24904;52.208;21.192;2024-03-02T14:24:34;100261.91;;;10.15;75.12
39177;BME280;24904;52.208;21.192;2024-03-02T14:29:40;100264.44;;;10.11;74.97
39177;BME280;24904;52.208;21.192;2024-03-02T14:34:45;100264.80;;;10.09;75.08
39177;BME280;24904;52.208;21.192;2024-03-02T14:39:50;100263.38;;;10.07;75.25
39177;BME280;24904;52.208;21.192;2024-03-02T14:44:55;100266.42;;;9.99;75.18
39177;BME280;24904;52.208;21.192;2024-03-02T14:50:01;100267.77;;;9.94;75.26
39177;BME280;24904;52.208;21.192;2024-03-02T14:55:10;100268.21;;;9.91;75.48
39177;BME280;24904;52.208;21.192;2024-03-02T15:00:15;100268.67;;;9.90;75.68
39177;BME280;24904;52.208;21.192;2024-03-02T15:05:21;100267.09;;;9.89;75.71
39177;BME280;24904;52.208;21.192;2024-03-02T15:10:26;100263.75;;;9.85;75.71
39177;BME280;24904;52.208;21.192;2024-03-02T15:15:31;100262.36;;;9.80;75.73
39177;BME280;24904;52.208;21.192;2024-03-02T15:20:38;100264.70;;;9.73;75.70
39177;BME280;24904;52.208;21.192;2024-03-02T15:25:44;100269.00;;;9.67;75.83
39177;BME280;24904;52.208;21.192;2024-03-02T15:30:50;100272.20;;;9.65;75.95
39177;BME280;24904;52.208;21.192;2024-03-02T15:35:55;100270.24;;;9.59;75.95
39177;BME280;24904;52.208;21.192;2024-03-02T15:41:00;100267.33;;;9.54;76.09
39177;BME280;24904;52.208;21.192;2024-03-02T15:46:06;100263.95;;;9.53;75.97
39177;BME280;24904;52.208;21.192;2024-03-02T15:51:11;100268.89;;;9.52;76.21
39177;BME280;24904;52.208;21.192;2024-03-02T15:56:17;100266.64;;;9.48;76.26
39177;BME280;24904;52.208;21.192;2024-03-02T16:01:22;100270.91;;;9.44;76.15
39177;BME280;24904;52.208;21.192;2024-03-02T16:06:28;100273.14;;;9.43;76.53
39177;BME280;24904;52.208;21.192;2024-03-02T16:11:33;100272.94;;;9.40;76.41
39177;BME280;24904;52.208;21.192;2024-03-02T16:16:39;100270.29;;;9.35;76.36
39177;BME280;24904;52.208;21.192;2024-03-02T16:21:44;100274.81;;;9.34;76.56
39177;BME280;24904;52.208;21.192;2024-03-02T16:26:49;100274.73;;;9.33;76.66
39177;BME280;24904;52.208;21.192;2024-03-02T16:31:54;100277.77;;;9.32;76.69
39177;BME280;24904;52.208;21.192;2024-03-02T16:36:59;100279.36;;;9.29;76.57
39177;BME280;24904;52.208;21.192;2024-03-02T16:42:06;100276.91;;;9.28;76.48
39177;BME280;24904;52.208;21.192;2024-03-02T16:47:11;100282.39;;;9.28;76.46
39177;BME280;24904;52.208;21.192;2024-03-02T16:52:19;100281.04;;;9.27;76.31
39177;BME280;24904;52.208;21.192;2024-03-02T16:57:26;100281.72;;;9.25;76.73
39177;BME280;24904;52.208;21.192;2024-03-02T17:02:32;100285.69;;;9.24;76.25
39177;BME280;24904;52.208;21.192;2024-03-02T17:07:37;100284.88;;;9.21;76.54
39177;BME280;24904;52.208;21.192;2024-03-02T17:16:48;100291.00;;;9.22;76.63
39177;BME280;24904;52.208;21.192;2024-03-02T17:21:52;100288.88;;;9.21;76.65
39177;BME280;24904;52.208;21.192;2024-03-02T17:26:56;100285.64;;;9.19;76.76
39177;BME280;24904;52.208;21.192;2024-03-02T17:32:00;100285.70;;;9.17;76.65
39177;BME280;24904;52.208;21.192;2024-03-02T17:37:04;100285.64;;;9.15;76.59
39177;BME280;24904;52.208;21.192;2024-03-02T17:42:07;100287.35;;;9.14;76.61
39177;BME280;24904;52.208;21.192;2024-03-02T17:47:10;100285.13;;;9.12;76.76
39177;BME280;24904;52.208;21.192;2024-03-02T17:52:13;100285.75;;;9.12;76.81
39177;BME280;24904;52.208;21.192;2024-03-02T18:01:13;100287.52;;;9.14;76.83
39177;BME280;24904;52.208;21.192;2024-03-02T18:06:17;100285.35;;;9.11;76.75
39177;BME280;24904;52.208;21.192;2024-03-02T18:11:21;100280.94;;;9.10;76.59
39177;BME280;24904;52.208;21.192;2024-03-02T18:16:26;100285.71;;;9.10;76.89
39177;BME280;24904;52.208;21.192;2024-03-02T18:21:29;100287.60;;;9.10;76.72
39177;BME280;24904;52.208;21.192;2024-03-02T18:26:32;100287.64;;;9.12;76.82
39177;BME280;24904;52.208;21.192;2024-03-02T18:31:37;100288.20;;;9.13;76.68
39177;BME280;24904;52.208;21.192;2024-03-02T18:36:40;100288.44;;;9.08;76.53
39177;BME280;24904;52.208;21.192;2024-03-02T18:41:43;100291.28;;;9.04;76.65
39177;BME280;24904;52.208;21.192;2024-03-02T18:46:46;100288.04;;;9.03;76.71
39177;BME280;24904;52.208;21.192;2024-03-02T18:51:49;100289.59;;;8.97;76.53
39177;BME280;24904;52.208;21.192;2024-03-02T18:56:52;100291.31;;;8.92;76.50
39177;BME280;24904;52.208;21.192;2024-03-02T19:01:55;100288.10;;;8.87;76.45
39177;BME280;24904;52.208;21.192;2024-03-02T19:06:58;100290.70;;;8.84;76.79
39177;BME280;24904;52.208;21.192;2024-03-02T19:12:01;100291.39;;;8.83;76.73
39177;BME280;24904;52.208;21.192;2024-03-02T19:17:04;100289.94;;;8.80;76.76
39177;BME280;24904;52.208;21.192;2024-03-02T19:22:07;100292.22;;;8.76;76.55
39177;BME280;24904;52.208;21.192;2024-03-02T19:27:11;100289.64;;;8.76;76.85
39177;BME280;24904;52.208;21.192;2024-03-02T19:32:14;100285.49;;;8.76;76.78
39177;BME280;24904;52.208;21.192;2024-03-02T19:37:19;100283.98;;;8.71;76.74
39177;BME280;24904;52.208;21.192;2024-03-02T19:42:22;100279.30;;;8.66;76.68
39177;BME280;24904;52.208;21.192;2024-03-02T19:47:25;100284.60;;;8.60;76.68
39177;BME280;24904;52.208;21.192;2024-03-02T19:52:29;100281.00;;;8.57;76.87
39177;BME280;24904;52.208;21.192;2024-03-02T19:57:32;100283.89;;;8.56;76.83
39177;BME280;24904;52.208;21.192;2024-03-02T20:02:38;100284.40;;;8.58;76.89
39177;BME280;24904;52.208;21.192;2024-03-02T20:07:41;100281.58;;;8.58;76.80
39177;BME280;24904;52.208;21.192;2024-03-02T20:12:44;100281.45;;;8.55;76.75
39177;BME280;24904;52.208;21.192;2024-03-02T20:17:47;100280.73;;;8.54;76.75
39177;BME280;24904;52.208;21.192;2024-03-02T20:22:50;100282.23;;;8.55;76.90
39177;BME280;24904;52.208;21.192;2024-03-02T20:27:54;100285.30;;;8.56;76.71
39177;BME280;24904;52.208;21.192;2024-03-02T20:32:57;100288.10;;;8.59;76.68
39177;BME280;24904;52.208;21.192;2024-03-02T20:38:00;100287.02;;;8.60;76.44
39177;BME280;24904;52.208;21.192;2024-03-02T20:43:04;100281.35;;;8.62;76.25
39177;BME280;24904;52.208;21.192;2024-03-02T20:48:07;100280.04;;;8.63;76.39
39177;BME280;24904;52.208;21.192;2024-03-02T20:53:11;100277.48;;;8.65;76.23
39177;BME280;24904;52.208;21.192;2024-03-02T20:58:14;100277.95;;;8.66;76.22
39177;BME280;24904;52.208;21.192;2024-03-02T21:03:17;100272.36;;;8.68;75.91
39177;BME280;24904;52.208;21.192;2024-03-02T21:08:20;100271.23;;;8.71;75.96
39177;BME280;24904;52.208;21.192;2024-03-02T21:13:23;100267.00;;;8.70;75.85
39177;BME280;24904;52.208;21.192;2024-03-02T21:18:26;100269.92;;;8.72;75.65
39177;BME280;24904;52.208;21.192;2024-03-02T21:23:30;100264.12;;;8.75;75.63
39177;BME280;24904;52.208;21.192;2024-03-02T21:28:35;100265.25;;;8.77;75.66
39177;BME280;24904;52.208;21.192;2024-03-02T21:33:38;100261.67;;;8.78;75.29
39177;BME280;24904;52.208;21.192;2024-03-02T21:38:41;100260.84;;;8.80;75.29
39177;BME280;24904;52.208;21.192;2024-03-02T21:43:44;100263.35;;;8.76;75.06
39177;BME280;24904;52.208;21.192;2024-03-02T21:48:47;100259.36;;;8.76;75.10
39177;BME280;24904;52.208;21.192;2024-03-02T21:53:53;100259.60;;;8.81;75.21
39177;BME280;24904;52.208;21.192;2024-03-02T21:58:58;100267.42;;;8.82;74.77
39177;BME280;24904;52.208;21.192;2024-03-02T22:04:01;100263.59;;;8.80;74.68
39177;BME280;24904;52.208;21.192;2024-03-02T22:09:05;100258.52;;;8.77;74.71
39177;BME280;24904;52.208;21.192;2024-03-02T22:14:08;100257.59;;;8.76;74.82
39177;BME280;24904;52.208;21.192;2024-03-02T22:19:11;100253.13;;;8.77;74.53
39177;BME280;24904;52.208;21.192;2024-03-02T22:24:14;100250.95;;;8.78;74.57
39177;BME280;24904;52.208;21.192;2024-03-02T22:29:18;100250.61;;;8.82;74.42
39177;BME280;24904;52.208;21.192;2024-03-02T22:34:21;100245.36;;;8.81;74.47
39177;BME280;24904;52.208;21.192;2024-03-02T22:39:24;100247.56;;;8.82;74.12
39177;BME280;24904;52.208;21.192;2024-03-02T22:44:27;100245.10;;;8.84;74.08
39177;BME280;24904;52.208;21.192;2024-03-02T22:49:30;100245.97;;;8.85;74.08
39177;BME280;24904;52.208;21.192;2024-03-02T22:54:33;100241.67;;;8.86;74.04
39177;BME280;24904;52.208;21.192;2024-03-02T22:59:36;100242.58;;;8.87;73.62
39177;BME280;24904;52.208;21.192;2024-03-02T23:04:39;100242.98;;;8.88;73.68
39177;BME280;24904;52.208;21.192;2024-03-02T23:09:42;100246.45;;;8.85;73.35
39177;BME280;24904;52.208;21.192;2024-03-02T23:14:45;100245.77;;;8.87;73.33
39177;BME280;24904;52.208;21.192;2024-03-02T23:19:48;100243.28;;;8.87;73.11
39177;BME280;24904;52.208;21.192;2024-03-02T23:24:52;100248.61;;;8.88;73.04
39177;BME280;24904;52.208;21.192;2024-03-02T23:29:55;100254.25;;;8.88;72.94
39177;BME280;24904;52.208;21.192;2024-03-02T23:34:58;100252.39;;;8.89;72.67
39177;BME280;24904;52.208;21.192;2024-03-02T23:40:01;100248.02;;;8.89;72.50
39177;BME280;24904;52.208;21.192;2024-03-02T23:45:22;100244.72;;;8.89;72.20
39177;BME280;24904;52.208;21.192;2024-03-02T23:50:26;100243.70;;;8.89;72.24
39177;BME280;24904;52.208;21.192;2024-03-02T23:55:29;100244.09;;;8.89;72.17
